Estación Meteorológica Peña el Pijo (Robertgarden) [ 01/16/21 20:35:39 CET ]

Fecha Hora Presion(HPa) Temp (°C) Humedad % Rocio (°C) Viento ( m/s) Direccion Lluvia 1Hora(mm) Lluvia 24H(mm) LLuvia Total(mm)
2021-Jan-12 01:09:24 1010.600 -3.9 94 -4.7 - N     89.61
2021-Jan-12 02:10:46 1010.900 -4.2 93 -5.2 - N     89.61
2021-Jan-12 03:09:50 1011.300 -4.6 93 -5.6 - N     89.61
2021-Jan-12 04:09:33 1011.500 -4.7 93 -5.7 - N     89.61
2021-Jan-12 05:09:28 1011.100 -5.1 93 -6.1 - N     89.61
2021-Jan-12 06:09:36 1011.300 -5.2 92 -6.3 - N     89.61
2021-Jan-12 07:09:46 1011.900 -5.6 92 -6.7 - N     89.61
2021-Jan-12 08:09:25 1012.600 -5.8 91 -7.1 - N     89.61
2021-Jan-12 09:09:34 1013.300 -5.6 92 -6.7 - N     89.61
2021-Jan-12 10:09:28 1013.800 0.8 90 -0.7 - N     89.61
2021-Jan-12 11:09:09 1014.200 4.2 86 2.0 - N     89.61
2021-Jan-12 12:09:05 1014.200 5.5 86 3.3 - N     89.61
2021-Jan-12 13:09:13 1013.300 7.1 82 4.2 - N     89.61
2021-Jan-12 14:09:27 1012.800 6.6 78 3.0 - N     89.61
2021-Jan-12 15:09:07 1012.700 6.3 85 3.9 - N     89.61
2021-Jan-12 16:09:28 1012.800 4.4 88 2.6 - N     89.61
2021-Jan-12 17:09:19 1013.100 3.5 89 1.8 - N     89.61
2021-Jan-12 18:09:30 1013.700 0.8 91 -0.5 - N     89.61
2021-Jan-12 19:09:36 1014.300 -0.6 92 -1.7 - N     89.61
2021-Jan-12 20:09:33 1014.700 -0.7 92 -1.8 - N     89.61
2021-Jan-12 21:09:41 1015.100 -1.5 91 -2.8 - N     89.61
2021-Jan-12 22:09:29 1015.500 -1.9 90 -3.3 - N     89.61
2021-Jan-12 23:09:23 1015.600 -2.4 89 -4.0 - N     89.61

Temperatura Máxima:    Temperatura Mínima:-5°
Presión Máxima:1015.600 Hpa    Presión Mínima:1010.600 Hpa


Volver